Aviation Digital Data Service (ADDS)

Output produced by METARs form (1827 UTC 16 August 2018)
found at http://www.aviationweather.gov/adds/metars/
 
KRAP 161720Z 1618/1718 VRB06KT P6SM SCT200
       
KRBG 161720Z 1618/1718 VRB03KT P6SM OVC011 
     FM162000 36005KT P6SM SCT012 
     FM162200 36009G16KT P6SM SKC 
     FM170400 VRB03KT P6SM SKC
       
KRBL 161738Z 1618/1718 VRB04KT P6SM SKC 
     FM162100 17008KT P6SM SKC 
     FM170600 VRB05KT P6SM SKC
       
TAF KRCA 161100Z 1611/1717 VRB06KT 9999 SKC QNH3002INS 
     BECMG 1715/1716 16012KT 9999 FEW200 QNH3012INS TX30/1621Z TN13/1612Z
       
KRDD 161738Z 1618/1718 VRB04KT P6SM SKC 
     TEMPO 1618/1620 3SM FU SKC 
     FM162100 17010KT P6SM SKC 
     FM170600 VRB05KT P6SM SKC
       
KRDG 161720Z 1618/1718 24006KT P6SM SCT050 
     FM162000 24007KT P6SM SCT150 
     FM171400 21005KT P6SM BKN110
       
KRDM 161726Z 1618/1718 33008KT P6SM FEW100 
     FM162300 33010KT P6SM VCTS FEW080 BKN100CB 
     FM170600 VRB05KT P6SM SCT100 
     FM171700 32008KT P6SM SKC
       
TAF KRDR 161800Z 1618/1724 VRB06KT 9999 SKC QNH2998INS 
     BECMG 1720/1721 17006KT 9999 FEW200 QNH3007INS TX31/1621Z TN12/1711Z
       
KRDU 161724Z 1618/1718 24006KT P6SM SCT045 SCT250 
     FM170400 20004KT P6SM FEW035 
     FM171500 23009KT P6SM SCT040
       
KRIC 161732Z 1618/1718 22005KT P6SM SCT060 
     FM162300 17004KT P6SM FEW250 
     FM171100 21004KT P6SM FEW250
       
KRIL 161740Z 1618/1718 VRB04KT P6SM VCSH BKN110 OVC150 
     FM161900 29008KT P6SM SCT120 BKN200 
     FM162200 33008KT P6SM VCTS SCT110CB BKN140 
     FM170200 14006KT P6SM SCT090 BKN140 
     FM171000 VRB03KT P6SM FEW090 SCT150
       
TAF KRIV 161200Z 1612/1718 VRB04KT 9999 FEW150 QNH2998INS 
     BECMG 1618/1619 31009KT 9999 SCT100 QNH2996INS 
     TEMPO 1621/1702 31012G18KT TS OMTNS NE-SE 
     BECMG 1704/1705 VRB04KT 9999 SCT100 QNH3002INS TX35/1622Z TN18/1613Z
       
KRIW 161720Z 1618/1718 VRB05KT P6SM FEW250 
     FM170100 08007KT P6SM SKC 
     FM170600 31006KT P6SM SCT110 SCT200
       
KRKD 161724Z 1618/1718 30008KT P6SM SCT090 
     FM170800 VRB03KT 1SM BR FEW250 
     FM171200 09006KT P6SM FEW250 AMD LTD TO CLD VIS AND WIND
       
KRKS 161720Z 1618/1718 VRB06KT P6SM SKC 
     FM161900 30007KT P6SM SCT130 
     FM170500 VRB06KT P6SM SCT120 BKN200
       
KRME 161720Z 1618/1718 28005KT P6SM SCT040 
     FM170000 12004KT P6SM SCT040 BKN100 
     TEMPO 1709/1713 5SM SHRA BR OVC035 
     FM171300 14005KT P6SM -SHRA OVC040
       
KRNO 161754Z 1618/1718 VRB04KT P6SM SCT100 
     FM162300 26012G22KT P6SM SCT100 
     FM170400 30007KT P6SM SKC 
     FM171000 VRB03KT P6SM SKC
       
KROA 161735Z 1618/1718 VRB04KT P6SM SCT050 SCT250 
     FM171500 24010KT P6SM BKN050
       
KROC 161735Z 1618/1718 33005KT P6SM SCT080 
     FM162000 30005KT P6SM VCTS BKN040CB 
     TEMPO 1620/1623 2SM +TSRA OVC025CB 
     FM162300 17005KT P6SM VCSH OVC040 
     FM170500 18005KT 6SM -SHRA VCTS BKN040CB OVC050 
     FM171000 18008KT P6SM OVC035 
     FM171500 23010KT P6SM VCSH BKN025
       
KROG 161720Z 1618/1718 VRB04KT P6SM SCT040 SCT250 
     FM170300 VRB04KT P6SM VCTS BKN050CB 
     PROB30 1703/1709 4SM TSRA BKN035CB 
     FM171000 VRB04KT P6SM VCSH BKN050 
     FM171300 23004KT P6SM BKN250
       
KROW 161727Z 1618/1718 VRB06KT P6SM FEW150 
     FM162100 17009KT P6SM SCT150 
     FM170300 VRB06KT P6SM FEW150 
     FM171300 36006KT P6SM SCT150
       
KRSL 161741Z 1618/1718 14007KT P6SM SCT035 
     FM162300 14007KT P6SM VCTS SCT060CB 
     FM170100 04007KT P6SM VCTS SCT060CB 
     FM170400 04007KT P6SM SCT100
       
KRST 161720Z 1618/1718 35006KT P6SM VCTS BKN035CB 
     FM170300 31004KT P6SM SCT100 
     FM170900 VRB03KT 4SM BR SCT005 
     FM171400 35006KT P6SM FEW100
       
KRSW 161730Z 1618/1718 13010KT P6SM SCT040 SCT250 
     FM161900 16008KT P6SM VCTS SCT040CB BKN060 BKN250 
     FM170300 VRB03KT P6SM FEW040 SCT120 BKN250 
     FM171400 13008KT P6SM SCT025 SCT250
       
KRUT 161720Z 1618/1718 31006KT P6SM FEW120 
     FM162300 34005KT P6SM FEW200 
     FM170600 12005KT P6SM SCT120 
     FM171100 13006KT P6SM VCSH BKN050 
     FM171300 15007KT 6SM -SHRA BR OVC040
       
KRVS 161720Z 1618/1718 19007KT P6SM SCT050 SCT250 
     FM162300 17007KT P6SM VCTS BKN050CB 
     TEMPO 1623/1701 4SM TSRA BKN035CB 
     FM170300 17006KT P6SM BKN100 
     PROB30 1704/1710 4SM TSRA BKN035CB 
     FM171200 22004KT P6SM SCT100 BKN250
       
KRWI 161815Z 1618/1718 25007KT P6SM SCT045 SCT250 
     TEMPO 1618/1620 VRB15G28KT 2SM SHRA BR BKN035 
     FM170100 20004KT P6SM FEW035 
     FM171500 23009KT P6SM SCT040 SCT250
       
KRWL 161720Z 1618/1718 32007KT P6SM FEW250 
     FM170100 05006KT P6SM FEW250 
     FM170600 06005KT P6SM SCT250
       
KRYY 161720Z 1618/1718 19006KT P6SM VCSH SCT050 
     FM170100 20005KT P6SM FEW050 SCT250 
     FM170800 20004KT P6SM SCT100 SCT250 
     FM171500 22006KT P6SM BKN040